createdAt,value
2017-11-07T00:00:28.834Z,3.53
2017-11-07T00:02:56.355Z,3.45
2017-11-07T00:05:24.659Z,4.03
2017-11-07T00:07:52.231Z,5.07
2017-11-07T00:10:19.747Z,3.87
2017-11-07T00:12:48.047Z,2.95
2017-11-07T00:15:15.562Z,2.75
2017-11-07T00:17:43.865Z,3.05
2017-11-07T00:20:12.154Z,3.65
2017-11-07T00:22:40.458Z,2.60
2017-11-07T00:25:07.980Z,2.97
2017-11-07T00:27:35.515Z,2.62
2017-11-07T00:30:03.037Z,2.60
2017-11-07T00:32:30.559Z,2.80
2017-11-07T00:34:58.088Z,3.03
2017-11-07T00:37:25.603Z,2.30
2017-11-07T00:39:53.898Z,3.05
2017-11-07T00:42:21.420Z,3.80
2017-11-07T00:44:48.953Z,3.22
2017-11-07T00:47:16.467Z,2.85
2017-11-07T00:49:44.771Z,2.87
2017-11-07T00:52:12.287Z,4.10
2017-11-07T00:54:40.574Z,4.55
2017-11-07T00:57:08.884Z,4.05
2017-11-07T00:59:36.401Z,4.25
2017-11-07T01:02:03.944Z,4.82
2017-11-07T01:04:31.464Z,4.07
2017-11-07T01:06:59.003Z,4.60
2017-11-07T01:09:27.287Z,6.85
2017-11-07T01:11:54.827Z,4.93
2017-11-07T01:14:23.115Z,7.45
2017-11-07T01:16:51.427Z,8.80
2017-11-07T01:19:18.946Z,7.50
2017-11-07T01:21:47.238Z,8.63
2017-11-07T01:24:15.552Z,9.98
2017-11-07T01:26:43.127Z,9.57
2017-11-07T01:29:10.670Z,9.27
2017-11-07T01:31:38.186Z,9.30
2017-11-07T01:34:05.727Z,9.27
2017-11-07T01:36:33.260Z,9.23
2017-11-07T01:39:00.808Z,9.10
2017-11-07T01:41:28.343Z,7.78
2017-11-07T01:43:56.654Z,8.38
2017-11-07T01:46:24.183Z,7.97
2017-11-07T01:48:52.483Z,9.85
2017-11-07T01:51:20.023Z,9.48
2017-11-07T01:53:48.307Z,8.88
2017-11-07T01:56:16.675Z,8.65
2017-11-07T01:58:44.203Z,8.30
2017-11-07T02:01:11.763Z,8.13
2017-11-07T02:03:39.286Z,8.32
2017-11-07T02:06:06.836Z,10.45
2017-11-07T02:08:35.126Z,9.25
2017-11-07T02:11:02.670Z,8.38
2017-11-07T02:13:30.966Z,8.15
2017-11-07T02:15:58.486Z,9.02
2017-11-07T02:18:26.035Z,8.83
2017-11-07T02:20:53.575Z,8.27
2017-11-07T02:23:21.132Z,9.13
2017-11-07T02:25:48.662Z,8.40
2017-11-07T02:28:16.966Z,9.50
2017-11-07T02:30:44.488Z,8.33
2017-11-07T02:33:12.036Z,8.90
2017-11-07T02:35:39.563Z,7.07
2017-11-07T02:38:07.127Z,8.73
2017-11-07T02:40:34.644Z,8.63
2017-11-07T02:43:02.935Z,9.03
2017-11-07T02:45:30.478Z,8.50
2017-11-07T02:47:58.002Z,8.90
2017-11-07T02:50:25.547Z,10.90
2017-11-07T02:52:53.075Z,9.40
2017-11-07T02:55:20.631Z,7.82
2017-11-07T02:57:48.928Z,9.03
2017-11-07T03:00:16.479Z,9.10
2017-11-07T03:02:44.773Z,7.40
2017-11-07T03:05:12.335Z,8.13
2017-11-07T03:07:40.103Z,8.33
2017-11-07T03:10:07.664Z,7.97
2017-11-07T03:12:35.191Z,9.23
2017-11-07T03:15:03.498Z,8.50
2017-11-07T03:17:31.051Z,8.07
2017-11-07T03:19:58.586Z,7.90
2017-11-07T03:22:26.122Z,7.90
2017-11-07T03:24:53.651Z,7.30
2017-11-07T03:27:21.185Z,8.20
2017-11-07T03:29:49.476Z,8.00
2017-11-07T03:32:17.782Z,8.80
2017-11-07T03:34:45.307Z,8.77
2017-11-07T03:37:13.615Z,7.53
2017-11-07T03:39:41.130Z,7.03
2017-11-07T03:42:08.682Z,7.67
2017-11-07T03:44:36.202Z,7.40
2017-11-07T03:47:03.729Z,8.20
2017-11-07T03:49:32.036Z,7.60
2017-11-07T03:51:59.559Z,8.87
2017-11-07T03:54:27.875Z,8.50
2017-11-07T03:56:55.402Z,7.87
2017-11-07T03:59:23.716Z,7.37
2017-11-07T04:01:51.240Z,9.20
2017-11-07T04:04:19.552Z,9.00
2017-11-07T04:06:47.076Z,9.17
2017-11-07T04:09:15.396Z,7.90
2017-11-07T04:11:42.921Z,8.97
2017-11-07T04:14:11.212Z,7.50
2017-11-07T04:16:38.750Z,8.00
2017-11-07T04:19:07.044Z,8.73
2017-11-07T04:21:35.350Z,7.60
2017-11-07T04:24:02.879Z,8.40
2017-11-07T04:26:31.191Z,7.53
2017-11-07T04:28:58.710Z,7.97
2017-11-07T04:31:27.024Z,7.93
2017-11-07T04:33:54.551Z,8.63
2017-11-07T04:36:22.110Z,9.40
2017-11-07T04:38:49.638Z,9.20
2017-11-07T04:41:17.167Z,9.10
2017-11-07T04:43:44.711Z,9.00
2017-11-07T04:46:13.003Z,8.37
2017-11-07T04:48:40.544Z,8.90
2017-11-07T04:51:08.843Z,8.00
2017-11-07T04:53:36.385Z,9.67
2017-11-07T04:56:04.684Z,8.97
2017-11-07T04:58:32.247Z,9.13
2017-11-07T05:00:59.779Z,9.47
2017-11-07T05:03:28.072Z,7.97
2017-11-07T05:05:56.384Z,8.67
2017-11-07T05:08:23.911Z,7.97
2017-11-07T05:10:52.223Z,9.00
2017-11-07T05:13:19.778Z,9.27
2017-11-07T05:15:47.329Z,7.60
2017-11-07T05:18:14.875Z,8.00
2017-11-07T05:20:43.178Z,9.57
2017-11-07T05:23:10.696Z,8.80
2017-11-07T05:25:38.259Z,7.80
2017-11-07T05:28:05.779Z,8.50
2017-11-07T05:30:33.308Z,8.43
2017-11-07T05:33:01.935Z,8.47
2017-11-07T05:35:29.488Z,8.40
2017-11-07T05:37:57.044Z,8.07
2017-11-07T05:40:24.569Z,8.40
2017-11-07T05:42:52.881Z,8.57
2017-11-07T05:45:20.407Z,7.83
2017-11-07T05:47:48.720Z,8.37
2017-11-07T05:50:16.252Z,8.50
2017-11-07T05:52:44.579Z,7.63
2017-11-07T05:55:12.104Z,9.97
2017-11-07T05:57:39.637Z,8.17
2017-11-07T06:00:07.954Z,7.77
2017-11-07T06:02:35.479Z,7.30
2017-11-07T06:05:03.792Z,7.63
2017-11-07T06:07:31.312Z,8.33
2017-11-07T06:09:58.860Z,8.47
2017-11-07T06:12:26.390Z,8.20
2017-11-07T06:14:53.934Z,9.50
2017-11-07T06:17:21.459Z,9.10
2017-11-07T06:19:49.039Z,8.80
2017-11-07T06:22:17.359Z,10.27
2017-11-07T06:24:44.952Z,8.77
2017-11-07T06:27:12.483Z,8.50
2017-11-07T06:29:40.006Z,7.50
2017-11-07T06:32:07.553Z,7.03
2017-11-07T06:34:35.931Z,8.93
2017-11-07T06:37:04.241Z,8.13
2017-11-07T06:39:31.779Z,9.37
2017-11-07T06:41:59.330Z,7.50
2017-11-07T06:44:27.623Z,7.77
2017-11-07T06:46:55.171Z,10.57
2017-11-07T06:49:23.468Z,8.77
2017-11-07T06:51:51.020Z,8.30
2017-11-07T06:54:18.547Z,9.10
2017-11-07T06:56:46.090Z,8.40
2017-11-07T06:59:13.611Z,9.40
2017-11-07T07:01:41.158Z,8.70
2017-11-07T07:04:08.688Z,9.10
2017-11-07T07:06:36.231Z,9.20
2017-11-07T07:09:03.759Z,8.37
2017-11-07T07:11:31.319Z,8.00
2017-11-07T07:13:58.848Z,8.43
2017-11-07T07:16:27.137Z,7.90
2017-11-07T07:18:54.675Z,8.03
2017-11-07T07:21:22.971Z,10.03
2017-11-07T07:23:50.557Z,7.47
2017-11-07T07:26:18.087Z,8.07
2017-11-07T07:28:46.410Z,8.37
2017-11-07T07:31:13.937Z,7.33
2017-11-07T07:33:41.483Z,7.23
2017-11-07T07:36:09.775Z,7.20
2017-11-07T07:38:37.327Z,7.27
2017-11-07T07:41:05.624Z,7.63
2017-11-07T07:43:33.167Z,7.97
2017-11-07T07:46:00.691Z,7.60
2017-11-07T07:48:28.217Z,8.57
2017-11-07T07:50:55.758Z,7.57
2017-11-07T07:53:23.331Z,8.13
2017-11-07T07:55:50.878Z,6.90
2017-11-07T07:58:18.399Z,7.10
2017-11-07T08:00:45.954Z,7.30
2017-11-07T08:03:13.479Z,7.17
2017-11-07T08:05:41.019Z,7.33
2017-11-07T08:08:08.552Z,7.40
2017-11-07T08:10:36.868Z,8.57
2017-11-07T08:13:04.401Z,8.63
2017-11-07T08:15:32.702Z,7.80
2017-11-07T08:18:00.231Z,7.00
2017-11-07T08:20:28.545Z,7.47
2017-11-07T08:22:56.071Z,7.63
2017-11-07T08:25:24.377Z,6.97
2017-11-07T08:27:51.908Z,7.53
2017-11-07T08:30:20.223Z,7.87
2017-11-07T08:32:47.743Z,6.47
2017-11-07T08:35:16.072Z,6.77
2017-11-07T08:37:44.526Z,6.70
2017-11-07T08:40:12.077Z,6.93
2017-11-07T08:42:40.368Z,7.90
2017-11-07T08:45:07.967Z,6.87
2017-11-07T08:47:35.501Z,6.90
2017-11-07T08:50:03.052Z,6.97
2017-11-07T08:52:30.627Z,7.00
2017-11-07T08:54:58.156Z,6.93
2017-11-07T08:57:26.510Z,6.77
2017-11-07T08:59:54.048Z,7.57
2017-11-07T09:02:21.593Z,7.07
2017-11-07T09:04:49.127Z,6.27
2017-11-07T09:07:16.672Z,8.00
2017-11-07T09:09:44.968Z,8.60
2017-11-07T09:12:12.507Z,7.43
2017-11-07T09:14:40.796Z,6.80
2017-11-07T09:17:08.367Z,8.37
2017-11-07T09:19:35.892Z,7.23
2017-11-07T09:22:03.422Z,6.87
2017-11-07T09:24:30.981Z,7.40
2017-11-07T09:26:58.516Z,7.60
2017-11-07T09:29:26.064Z,6.17
2017-11-07T09:31:53.600Z,6.87
2017-11-07T09:34:21.906Z,6.20
2017-11-07T09:36:49.432Z,6.90
2017-11-07T09:39:16.970Z,7.03
2017-11-07T09:41:44.511Z,7.33
2017-11-07T09:44:12.813Z,6.30
2017-11-07T09:46:40.353Z,7.60
2017-11-07T09:49:07.941Z,6.50
2017-11-07T09:51:35.474Z,6.73
2017-11-07T09:54:03.015Z,7.90
2017-11-07T09:56:30.573Z,6.57
2017-11-07T09:58:58.103Z,6.50
2017-11-07T10:01:26.421Z,7.00
2017-11-07T10:03:53.948Z,7.63
2017-11-07T10:06:22.259Z,6.17
2017-11-07T10:08:49.787Z,7.40
2017-11-07T10:11:18.103Z,7.70
2017-11-07T10:13:46.396Z,7.23
2017-11-07T10:16:13.948Z,6.90
2017-11-07T10:18:42.236Z,6.17
2017-11-07T10:21:09.779Z,6.13
2017-11-07T10:23:37.303Z,7.13
2017-11-07T10:26:05.608Z,6.20
2017-11-07T10:28:33.126Z,6.00
2017-11-07T10:31:01.440Z,7.00
2017-11-07T10:33:29.010Z,5.67
2017-11-07T10:35:57.331Z,6.70
2017-11-07T10:38:25.631Z,5.83
2017-11-07T10:40:53.941Z,6.73
2017-11-07T10:43:21.471Z,5.67
2017-11-07T10:45:49.782Z,6.00
2017-11-07T10:48:17.304Z,5.80
2017-11-07T10:50:45.612Z,5.13
2017-11-07T10:53:13.135Z,6.77
2017-11-07T10:55:41.443Z,6.17
2017-11-07T10:58:08.973Z,6.40
2017-11-07T11:00:37.285Z,5.87
2017-11-07T11:03:04.819Z,6.60
2017-11-07T11:05:33.128Z,6.40
2017-11-07T11:08:00.660Z,6.80
2017-11-07T11:10:28.980Z,6.07
2017-11-07T11:12:56.499Z,6.37
2017-11-07T11:15:24.809Z,6.97
2017-11-07T11:17:52.346Z,5.90
2017-11-07T11:20:19.894Z,6.20
2017-11-07T11:22:48.179Z,6.87
2017-11-07T11:25:15.715Z,7.47
2017-11-07T11:27:43.239Z,6.73
2017-11-07T11:30:10.784Z,7.30
2017-11-07T11:32:38.320Z,7.57
2017-11-07T11:35:05.862Z,7.23
2017-11-07T11:37:34.150Z,7.73
2017-11-07T11:40:02.470Z,7.83
2017-11-07T11:42:29.996Z,7.33
2017-11-07T11:44:57.555Z,7.33
2017-11-07T11:47:25.124Z,7.30
2017-11-07T11:49:52.648Z,8.13
2017-11-07T11:52:20.186Z,8.10
2017-11-07T11:54:47.716Z,8.37
2017-11-07T11:57:15.282Z,8.60
2017-11-07T11:59:42.812Z,8.37
2017-11-07T12:02:10.364Z,8.77
2017-11-07T12:04:38.656Z,8.67
2017-11-07T12:07:06.200Z,7.67
2017-11-07T12:09:34.490Z,9.83
2017-11-07T12:12:02.041Z,8.67
2017-11-07T12:14:30.338Z,8.47
2017-11-07T12:16:57.879Z,8.47
2017-11-07T12:19:26.181Z,10.67
2017-11-07T12:21:53.727Z,9.00
2017-11-07T12:24:21.264Z,10.40
2017-11-07T12:26:48.804Z,8.73
2017-11-07T12:29:16.332Z,11.00
2017-11-07T12:31:43.875Z,10.57
2017-11-07T12:34:11.399Z,10.10
2017-11-07T12:36:38.955Z,9.13
2017-11-07T12:39:06.491Z,11.47
2017-11-07T12:41:34.040Z,11.10
2017-11-07T12:44:01.564Z,10.40
2017-11-07T12:46:29.115Z,9.50
2017-11-07T12:48:57.411Z,10.70
2017-11-07T12:51:36.682Z,11.30
2017-11-07T12:54:04.215Z,11.80
2017-11-07T12:56:31.768Z,11.13
2017-11-07T12:58:59.292Z,9.87
2017-11-07T13:01:26.837Z,11.10
2017-11-07T13:03:54.372Z,11.27
2017-11-07T13:06:21.932Z,11.00
2017-11-07T13:08:49.462Z,12.03
2017-11-07T13:11:16.999Z,10.40
2017-11-07T13:13:45.313Z,11.43
2017-11-07T13:16:12.841Z,11.53
2017-11-07T13:18:41.156Z,10.70
2017-11-07T13:21:08.694Z,10.90
2017-11-07T13:23:36.248Z,11.60
2017-11-07T13:26:04.539Z,11.33
2017-11-07T13:28:32.079Z,11.77
2017-11-07T13:31:00.373Z,11.30
2017-11-07T13:33:27.926Z,11.80
2017-11-07T13:35:56.215Z,10.43
2017-11-07T13:38:23.769Z,11.43
2017-11-07T13:40:51.295Z,12.43
2017-11-07T13:43:18.842Z,12.10
2017-11-07T13:45:46.396Z,13.80
2017-11-07T13:48:13.932Z,11.23
2017-11-07T13:50:41.490Z,12.67
2017-11-07T13:53:09.036Z,13.03
2017-11-07T13:55:36.584Z,12.47
2017-11-07T13:58:04.878Z,11.03
2017-11-07T14:00:32.426Z,12.33
2017-11-07T14:02:59.972Z,12.50
2017-11-07T14:05:28.298Z,11.90
2017-11-07T14:07:55.823Z,12.20
2017-11-07T14:10:24.138Z,11.60
2017-11-07T14:12:51.663Z,11.70
2017-11-07T14:15:19.995Z,13.10
2017-11-07T14:17:47.531Z,11.60
2017-11-07T14:20:15.064Z,12.90
2017-11-07T14:22:42.615Z,12.37
2017-11-07T14:25:10.915Z,12.33
2017-11-07T14:27:38.472Z,10.63
2017-11-07T14:30:06.001Z,11.07
2017-11-07T14:32:34.319Z,10.90
2017-11-07T14:35:01.882Z,12.07
2017-11-07T14:37:29.435Z,12.77
2017-11-07T14:39:56.963Z,12.07
2017-11-07T14:42:25.285Z,12.27
2017-11-07T14:44:52.823Z,11.30
2017-11-07T14:47:20.375Z,11.30
2017-11-07T14:49:48.668Z,12.53
2017-11-07T14:52:16.220Z,12.67
2017-11-07T14:54:43.751Z,11.03
2017-11-07T14:57:11.296Z,12.07
2017-11-07T14:59:38.826Z,11.33
2017-11-07T15:02:06.370Z,11.80
2017-11-07T15:04:33.895Z,10.87
2017-11-07T15:07:02.214Z,11.07
2017-11-07T15:09:29.734Z,11.47
2017-11-07T15:11:58.047Z,11.07
2017-11-07T15:14:25.580Z,11.60
2017-11-07T15:16:53.895Z,11.90
2017-11-07T15:19:21.430Z,10.73
2017-11-07T15:21:48.976Z,10.80
2017-11-07T15:24:16.524Z,12.00
2017-11-07T15:26:44.075Z,13.07
2017-11-07T15:29:11.608Z,12.80
2017-11-07T15:31:39.156Z,11.13
2017-11-07T15:34:06.682Z,12.00
2017-11-07T15:36:35.003Z,12.63
2017-11-07T15:39:02.531Z,12.60
2017-11-07T15:41:30.079Z,11.90
2017-11-07T15:43:58.373Z,11.90
2017-11-07T15:46:25.927Z,12.60
2017-11-07T15:48:53.467Z,12.63
2017-11-07T15:51:21.780Z,11.63
2017-11-07T15:53:49.328Z,12.00
2017-11-07T15:56:16.855Z,12.90
2017-11-07T15:58:44.395Z,11.77
2017-11-07T16:01:11.924Z,12.87
2017-11-07T16:03:39.477Z,11.97
2017-11-07T16:06:07.002Z,11.30
2017-11-07T16:08:35.315Z,12.90
2017-11-07T16:11:02.848Z,13.07
2017-11-07T16:13:31.163Z,11.63
2017-11-07T16:15:58.689Z,12.83
2017-11-07T16:18:27.012Z,11.20
2017-11-07T16:20:54.545Z,11.37
2017-11-07T16:23:22.104Z,11.40
2017-11-07T16:25:49.638Z,10.60
2017-11-07T16:28:17.951Z,11.50
2017-11-07T16:30:45.496Z,11.00
2017-11-07T16:33:13.044Z,12.50
2017-11-07T16:35:41.338Z,11.33
2017-11-07T16:38:08.887Z,11.77
2017-11-07T16:40:37.183Z,11.27
2017-11-07T16:43:04.743Z,12.40
2017-11-07T16:45:32.271Z,11.30
2017-11-07T16:48:00.589Z,12.53
2017-11-07T16:50:28.119Z,12.60
2017-11-07T16:52:56.432Z,12.90
2017-11-07T16:55:23.959Z,11.50
2017-11-07T16:57:52.268Z,12.97
2017-11-07T17:00:19.799Z,13.03
2017-11-07T17:02:48.110Z,11.47
2017-11-07T17:05:15.646Z,11.30
2017-11-07T17:07:43.195Z,12.23
2017-11-07T17:10:11.492Z,12.20
2017-11-07T17:12:39.042Z,12.50
2017-11-07T17:15:07.330Z,12.57
2017-11-07T17:17:34.888Z,14.17
2017-11-07T17:20:02.423Z,13.00
2017-11-07T17:22:30.752Z,11.30
2017-11-07T17:24:58.283Z,11.80
2017-11-07T17:27:25.822Z,12.87
2017-11-07T17:29:54.111Z,12.67
2017-11-07T17:32:22.423Z,13.37
2017-11-07T17:34:49.959Z,14.30
2017-11-07T17:37:17.494Z,12.30
2017-11-07T17:39:45.023Z,12.20
2017-11-07T17:42:12.572Z,12.00
2017-11-07T17:44:40.101Z,12.83
2017-11-07T17:47:07.653Z,13.33
2017-11-07T17:49:35.943Z,13.10
2017-11-07T17:52:03.485Z,12.90
2017-11-07T17:54:31.786Z,13.17
2017-11-07T17:56:59.338Z,12.70
2017-11-07T17:59:27.636Z,11.47
2017-11-07T18:01:55.184Z,11.90
2017-11-07T18:04:22.716Z,12.10
2017-11-07T18:06:50.240Z,11.70
2017-11-07T18:09:17.789Z,11.27
2017-11-07T18:11:45.335Z,11.77
2017-11-07T18:14:12.886Z,13.33
2017-11-07T18:16:40.412Z,12.20
2017-11-07T18:19:07.955Z,12.37
2017-11-07T18:21:35.489Z,12.47
2017-11-07T18:24:03.035Z,12.73
2017-11-07T18:26:30.563Z,12.83
2017-11-07T18:28:58.880Z,12.53
2017-11-07T18:31:26.411Z,13.63
2017-11-07T18:33:54.719Z,13.00
2017-11-07T18:36:22.244Z,12.17
2017-11-07T18:38:49.794Z,12.10
2017-11-07T18:41:17.325Z,12.43
2017-11-07T18:43:44.871Z,12.40
2017-11-07T18:46:12.404Z,12.57
2017-11-07T18:48:40.715Z,12.90
2017-11-07T18:51:08.239Z,12.47
2017-11-07T18:53:36.552Z,12.80
2017-11-07T18:56:04.076Z,12.30
2017-11-07T18:58:32.389Z,12.30
2017-11-07T19:00:59.928Z,14.33
2017-11-07T19:03:27.474Z,12.80
2017-11-07T19:05:55.767Z,15.50
2017-11-07T19:08:23.314Z,12.67
2017-11-07T19:10:51.611Z,13.40
2017-11-07T19:13:19.157Z,11.97
2017-11-07T19:15:47.451Z,11.77
2017-11-07T19:18:15.001Z,12.77
2017-11-07T19:20:42.536Z,14.67
2017-11-07T19:23:10.091Z,13.47
2017-11-07T19:25:37.625Z,14.50
2017-11-07T19:28:05.179Z,12.50
2017-11-07T19:30:32.710Z,13.10
2017-11-07T19:33:00.264Z,14.07
2017-11-07T19:35:27.794Z,13.77
2017-11-07T19:37:55.343Z,12.40
2017-11-07T19:40:22.868Z,14.83
2017-11-07T19:42:50.415Z,13.60
2017-11-07T19:45:17.953Z,13.77
2017-11-07T19:47:46.273Z,14.10
2017-11-07T19:50:13.794Z,13.60
2017-11-07T19:52:42.099Z,12.70
2017-11-07T19:55:09.645Z,13.40
2017-11-07T19:57:37.195Z,15.10
2017-11-07T20:00:05.500Z,15.07
2017-11-07T20:02:33.053Z,13.40
2017-11-07T20:05:00.581Z,12.40
2017-11-07T20:07:28.107Z,15.70
2017-11-07T20:09:55.657Z,15.60
2017-11-07T20:12:23.186Z,14.70
2017-11-07T20:14:51.497Z,14.20
2017-11-07T20:17:19.035Z,14.50
2017-11-07T20:19:46.589Z,14.80
2017-11-07T20:22:14.116Z,16.80
2017-11-07T20:24:41.680Z,12.60
2017-11-07T20:27:09.206Z,13.70
2017-11-07T20:29:36.763Z,13.80
2017-11-07T20:32:04.292Z,13.97
2017-11-07T20:34:31.844Z,12.57
2017-11-07T20:37:00.142Z,13.63
2017-11-07T20:39:27.691Z,13.13
2017-11-07T20:41:55.223Z,13.67
2017-11-07T20:44:22.768Z,13.87
2017-11-07T20:46:50.293Z,13.43
2017-11-07T20:49:17.845Z,14.20
2017-11-07T20:51:45.366Z,14.97
2017-11-07T20:54:12.912Z,13.93
2017-11-07T20:56:40.444Z,13.87
2017-11-07T20:59:08.755Z,12.60
2017-11-07T21:01:36.284Z,13.30
2017-11-07T21:04:03.840Z,14.00
2017-11-07T21:06:31.372Z,14.97
2017-11-07T21:08:58.915Z,13.47
2017-11-07T21:11:27.210Z,13.80
2017-11-07T21:13:54.755Z,12.10
2017-11-07T21:16:23.048Z,13.63
2017-11-07T21:18:51.515Z,13.93
2017-11-07T21:21:19.812Z,14.20
2017-11-07T21:23:47.356Z,11.70
2017-11-07T21:26:15.650Z,12.47
2017-11-07T21:28:43.958Z,12.70
2017-11-07T21:31:11.487Z,12.47
2017-11-07T21:33:39.042Z,12.20
2017-11-07T21:36:06.575Z,12.07
2017-11-07T21:38:34.127Z,11.13
2017-11-07T21:41:01.658Z,14.20
2017-11-07T21:43:29.194Z,15.30
2017-11-07T21:45:56.740Z,14.27
2017-11-07T21:48:25.037Z,16.33
2017-11-07T21:50:52.583Z,15.30
2017-11-07T21:53:20.881Z,14.13
2017-11-07T21:55:48.437Z,14.47
2017-11-07T21:58:15.990Z,15.13
2017-11-07T22:00:44.303Z,15.00
2017-11-07T22:03:11.831Z,13.30
2017-11-07T22:05:40.147Z,14.90
2017-11-07T22:08:07.670Z,13.77
2017-11-07T22:10:35.981Z,16.30
2017-11-07T22:13:07.098Z,13.90
2017-11-07T22:15:35.410Z,14.37
2017-11-07T22:18:11.480Z,15.20
2017-11-07T22:20:39.934Z,14.50
2017-11-07T22:23:27.239Z,17.33
2017-11-07T22:25:55.918Z,16.60
2017-11-07T22:28:26.379Z,13.30
2017-11-07T22:30:54.693Z,14.50
2017-11-07T22:33:22.223Z,14.90
2017-11-07T22:35:49.775Z,14.33
2017-11-07T22:38:17.301Z,15.70
2017-11-07T22:40:44.847Z,15.93
2017-11-07T22:43:12.372Z,16.37
2017-11-07T22:45:39.960Z,16.20
2017-11-07T22:48:07.484Z,15.10
2017-11-07T22:50:35.779Z,15.20
2017-11-07T22:53:03.335Z,15.93
2017-11-07T22:55:31.619Z,14.77
2017-11-07T22:57:59.162Z,15.03
2017-11-07T23:00:27.456Z,17.70
2017-11-07T23:02:55.762Z,14.73
2017-11-07T23:05:23.292Z,16.03
2017-11-07T23:07:50.847Z,14.00
2017-11-07T23:10:19.135Z,16.00
2017-11-07T23:12:47.448Z,15.73
2017-11-07T23:15:14.976Z,13.40
2017-11-07T23:17:43.291Z,15.10
2017-11-07T23:20:10.816Z,15.50
2017-11-07T23:22:39.107Z,16.27
2017-11-07T23:25:07.426Z,15.17
2017-11-07T23:27:34.950Z,17.50
2017-11-07T23:30:03.269Z,16.50
2017-11-07T23:32:30.798Z,16.77
2017-11-07T23:34:58.339Z,15.27
2017-11-07T23:37:26.640Z,15.47
2017-11-07T23:39:54.944Z,14.57
2017-11-07T23:42:22.467Z,15.27
2017-11-07T23:44:50.015Z,13.60
2017-11-07T23:47:18.334Z,15.33
2017-11-07T23:49:45.854Z,14.20
2017-11-07T23:52:13.404Z,13.13
2017-11-07T23:54:40.941Z,16.23
2017-11-07T23:57:08.488Z,16.57
2017-11-07T23:59:36.018Z,15.73
